sensor_id;sensor_type;location;lat;lon;timestamp;P1;durP1;ratioP1;P2;durP2;ratioP2
48629;SDS011;34426;52.180;4.462;2023-02-28T00:01:44;11.95;;;3.15;;
48629;SDS011;34426;52.180;4.462;2023-02-28T00:04:11;7.90;;;3.28;;
48629;SDS011;34426;52.180;4.462;2023-02-28T00:06:36;8.43;;;3.90;;
48629;SDS011;34426;52.180;4.462;2023-02-28T00:09:02;10.63;;;3.45;;
48629;SDS011;34426;52.180;4.462;2023-02-28T00:11:27;8.10;;;4.22;;
48629;SDS011;34426;52.180;4.462;2023-02-28T00:13:53;9.75;;;3.13;;
48629;SDS011;34426;52.180;4.462;2023-02-28T00:16:19;9.65;;;3.08;;
48629;SDS011;34426;52.180;4.462;2023-02-28T00:18:46;8.80;;;3.03;;
48629;SDS011;34426;52.180;4.462;2023-02-28T00:21:13;11.90;;;3.28;;
48629;SDS011;34426;52.180;4.462;2023-02-28T00:23:38;8.88;;;3.55;;
48629;SDS011;34426;52.180;4.462;2023-02-28T00:26:04;13.27;;;3.53;;
48629;SDS011;34426;52.180;4.462;2023-02-28T00:28:29;12.70;;;3.30;;
48629;SDS011;34426;52.180;4.462;2023-02-28T00:30:55;11.32;;;3.33;;
48629;SDS011;34426;52.180;4.462;2023-02-28T00:33:21;16.08;;;3.53;;
48629;SDS011;34426;52.180;4.462;2023-02-28T00:35:46;11.32;;;3.20;;
48629;SDS011;34426;52.180;4.462;2023-02-28T00:38:13;11.63;;;3.85;;
48629;SDS011;34426;52.180;4.462;2023-02-28T00:40:39;15.18;;;3.72;;
48629;SDS011;34426;52.180;4.462;2023-02-28T00:43:04;14.10;;;3.83;;
48629;SDS011;34426;52.180;4.462;2023-02-28T00:45:30;9.93;;;3.58;;
48629;SDS011;34426;52.180;4.462;2023-02-28T00:47:55;9.43;;;3.63;;
48629;SDS011;34426;52.180;4.462;2023-02-28T00:50:21;14.82;;;3.42;;
48629;SDS011;34426;52.180;4.462;2023-02-28T00:52:47;11.20;;;3.42;;
48629;SDS011;34426;52.180;4.462;2023-02-28T00:55:14;15.18;;;4.38;;
48629;SDS011;34426;52.180;4.462;2023-02-28T00:57:40;10.85;;;3.67;;
48629;SDS011;34426;52.180;4.462;2023-02-28T01:00:05;17.85;;;4.13;;
48629;SDS011;34426;52.180;4.462;2023-02-28T01:02:32;7.90;;;3.33;;
48629;SDS011;34426;52.180;4.462;2023-02-28T01:04:58;11.10;;;3.70;;
48629;SDS011;34426;52.180;4.462;2023-02-28T01:07:23;12.02;;;4.65;;
48629;SDS011;34426;52.180;4.462;2023-02-28T01:09:49;15.18;;;4.15;;
48629;SDS011;34426;52.180;4.462;2023-02-28T01:12:16;9.95;;;3.75;;
48629;SDS011;34426;52.180;4.462;2023-02-28T01:14:41;14.15;;;4.03;;
48629;SDS011;34426;52.180;4.462;2023-02-28T01:17:07;12.93;;;4.53;;
48629;SDS011;34426;52.180;4.462;2023-02-28T01:19:33;14.20;;;3.90;;
48629;SDS011;34426;52.180;4.462;2023-02-28T01:22:00;14.35;;;3.90;;
48629;SDS011;34426;52.180;4.462;2023-02-28T01:24:28;10.80;;;3.85;;
48629;SDS011;34426;52.180;4.462;2023-02-28T01:26:53;13.88;;;4.18;;
48629;SDS011;34426;52.180;4.462;2023-02-28T01:29:20;11.80;;;4.00;;
48629;SDS011;34426;52.180;4.462;2023-02-28T01:31:46;10.50;;;3.80;;
48629;SDS011;34426;52.180;4.462;2023-02-28T01:34:11;10.25;;;3.55;;
48629;SDS011;34426;52.180;4.462;2023-02-28T01:36:37;17.63;;;3.58;;
48629;SDS011;34426;52.180;4.462;2023-02-28T01:39:02;9.45;;;3.88;;
48629;SDS011;34426;52.180;4.462;2023-02-28T01:41:30;7.55;;;3.53;;
48629;SDS011;34426;52.180;4.462;2023-02-28T01:43:59;10.65;;;4.28;;
48629;SDS011;34426;52.180;4.462;2023-02-28T01:46:28;13.48;;;3.83;;
48629;SDS011;34426;52.180;4.462;2023-02-28T01:48:54;13.55;;;3.53;;
48629;SDS011;34426;52.180;4.462;2023-02-28T01:51:29;12.32;;;3.92;;
48629;SDS011;34426;52.180;4.462;2023-02-28T01:54:01;6.80;;;3.50;;
48629;SDS011;34426;52.180;4.462;2023-02-28T01:56:30;13.13;;;3.78;;
48629;SDS011;34426;52.180;4.462;2023-02-28T01:59:01;15.02;;;4.07;;
48629;SDS011;34426;52.180;4.462;2023-02-28T02:01:29;15.43;;;3.55;;
48629;SDS011;34426;52.180;4.462;2023-02-28T02:03:56;11.00;;;4.03;;
48629;SDS011;34426;52.180;4.462;2023-02-28T02:06:25;12.80;;;3.97;;
48629;SDS011;34426;52.180;4.462;2023-02-28T02:08:55;10.57;;;4.25;;
48629;SDS011;34426;52.180;4.462;2023-02-28T02:11:21;17.80;;;4.53;;
48629;SDS011;34426;52.180;4.462;2023-02-28T02:13:53;10.45;;;4.28;;
48629;SDS011;34426;52.180;4.462;2023-02-28T02:16:51;14.75;;;4.40;;
48629;SDS011;34426;52.180;4.462;2023-02-28T02:19:46;11.88;;;4.13;;
48629;SDS011;34426;52.180;4.462;2023-02-28T02:25:36;12.70;;;4.55;;
48629;SDS011;34426;52.180;4.462;2023-02-28T02:28:29;11.30;;;4.30;;
48629;SDS011;34426;52.180;4.462;2023-02-28T02:31:25;15.15;;;5.47;;
48629;SDS011;34426;52.180;4.462;2023-02-28T02:34:10;14.20;;;4.38;;
48629;SDS011;34426;52.180;4.462;2023-02-28T02:36:52;8.48;;;4.72;;
48629;SDS011;34426;52.180;4.462;2023-02-28T02:39:29;14.38;;;5.05;;
48629;SDS011;34426;52.180;4.462;2023-02-28T02:42:01;10.40;;;4.10;;
48629;SDS011;34426;52.180;4.462;2023-02-28T02:44:38;12.18;;;4.43;;
48629;SDS011;34426;52.180;4.462;2023-02-28T02:47:09;11.73;;;4.30;;
48629;SDS011;34426;52.180;4.462;2023-02-28T02:49:39;10.90;;;4.32;;
48629;SDS011;34426;52.180;4.462;2023-02-28T02:52:09;12.07;;;4.65;;
48629;SDS011;34426;52.180;4.462;2023-02-28T02:54:38;10.32;;;4.53;;
48629;SDS011;34426;52.180;4.462;2023-02-28T02:57:10;10.77;;;4.35;;
48629;SDS011;34426;52.180;4.462;2023-02-28T02:59:40;12.67;;;4.60;;
48629;SDS011;34426;52.180;4.462;2023-02-28T03:02:07;10.80;;;4.22;;
48629;SDS011;34426;52.180;4.462;2023-02-28T03:04:40;14.25;;;4.53;;
48629;SDS011;34426;52.180;4.462;2023-02-28T03:07:10;15.48;;;4.70;;
48629;SDS011;34426;52.180;4.462;2023-02-28T03:09:35;12.88;;;4.40;;
48629;SDS011;34426;52.180;4.462;2023-02-28T03:12:01;9.35;;;4.57;;
48629;SDS011;34426;52.180;4.462;2023-02-28T03:14:31;13.95;;;4.68;;
48629;SDS011;34426;52.180;4.462;2023-02-28T03:17:23;16.55;;;5.20;;
48629;SDS011;34426;52.180;4.462;2023-02-28T03:19:59;8.35;;;4.15;;
48629;SDS011;34426;52.180;4.462;2023-02-28T03:22:42;11.63;;;4.30;;
48629;SDS011;34426;52.180;4.462;2023-02-28T03:27:44;12.90;;;4.63;;
48629;SDS011;34426;52.180;4.462;2023-02-28T03:30:20;13.05;;;4.78;;
48629;SDS011;34426;52.180;4.462;2023-02-28T03:32:51;14.13;;;4.68;;
48629;SDS011;34426;52.180;4.462;2023-02-28T03:35:22;9.63;;;4.47;;
48629;SDS011;34426;52.180;4.462;2023-02-28T03:37:50;11.90;;;4.60;;
48629;SDS011;34426;52.180;4.462;2023-02-28T03:40:21;15.90;;;5.18;;
48629;SDS011;34426;52.180;4.462;2023-02-28T03:42:50;15.27;;;4.88;;
48629;SDS011;34426;52.180;4.462;2023-02-28T03:45:21;17.90;;;4.95;;
48629;SDS011;34426;52.180;4.462;2023-02-28T03:47:51;18.58;;;5.63;;
48629;SDS011;34426;52.180;4.462;2023-02-28T03:50:18;13.48;;;4.72;;
48629;SDS011;34426;52.180;4.462;2023-02-28T03:52:50;16.75;;;4.85;;
48629;SDS011;34426;52.180;4.462;2023-02-28T03:55:18;18.10;;;4.95;;
48629;SDS011;34426;52.180;4.462;2023-02-28T03:57:49;14.07;;;4.85;;
48629;SDS011;34426;52.180;4.462;2023-02-28T04:00:25;18.02;;;4.78;;
48629;SDS011;34426;52.180;4.462;2023-02-28T04:02:55;12.70;;;4.90;;
48629;SDS011;34426;52.180;4.462;2023-02-28T04:05:22;11.25;;;5.03;;
48629;SDS011;34426;52.180;4.462;2023-02-28T04:07:48;7.28;;;4.40;;
48629;SDS011;34426;52.180;4.462;2023-02-28T04:10:14;11.65;;;5.03;;
48629;SDS011;34426;52.180;4.462;2023-02-28T04:12:40;17.45;;;5.20;;
48629;SDS011;34426;52.180;4.462;2023-02-28T04:15:06;14.77;;;5.00;;
48629;SDS011;34426;52.180;4.462;2023-02-28T04:17:32;12.73;;;4.85;;
48629;SDS011;34426;52.180;4.462;2023-02-28T04:19:58;14.23;;;5.78;;
48629;SDS011;34426;52.180;4.462;2023-02-28T04:22:25;10.10;;;4.88;;
48629;SDS011;34426;52.180;4.462;2023-02-28T04:24:50;12.52;;;5.05;;
48629;SDS011;34426;52.180;4.462;2023-02-28T04:27:16;16.88;;;6.10;;
48629;SDS011;34426;52.180;4.462;2023-02-28T04:29:42;9.50;;;4.55;;
48629;SDS011;34426;52.180;4.462;2023-02-28T04:32:07;9.35;;;4.50;;
48629;SDS011;34426;52.180;4.462;2023-02-28T04:34:32;12.25;;;4.90;;
48629;SDS011;34426;52.180;4.462;2023-02-28T04:36:58;14.70;;;5.07;;
48629;SDS011;34426;52.180;4.462;2023-02-28T04:39:25;12.35;;;4.88;;
48629;SDS011;34426;52.180;4.462;2023-02-28T04:41:51;11.48;;;4.47;;
48629;SDS011;34426;52.180;4.462;2023-02-28T04:44:16;11.15;;;5.05;;
48629;SDS011;34426;52.180;4.462;2023-02-28T04:46:42;15.02;;;5.45;;
48629;SDS011;34426;52.180;4.462;2023-02-28T04:49:08;10.93;;;4.60;;
48629;SDS011;34426;52.180;4.462;2023-02-28T04:51:36;12.07;;;5.07;;
48629;SDS011;34426;52.180;4.462;2023-02-28T04:54:01;12.00;;;5.25;;
48629;SDS011;34426;52.180;4.462;2023-02-28T04:56:28;16.48;;;5.07;;
48629;SDS011;34426;52.180;4.462;2023-02-28T04:58:54;11.35;;;5.43;;
48629;SDS011;34426;52.180;4.462;2023-02-28T05:01:21;13.73;;;4.97;;
48629;SDS011;34426;52.180;4.462;2023-02-28T05:03:48;13.63;;;5.20;;
48629;SDS011;34426;52.180;4.462;2023-02-28T05:06:14;18.55;;;6.00;;
48629;SDS011;34426;52.180;4.462;2023-02-28T05:08:41;12.30;;;4.78;;
48629;SDS011;34426;52.180;4.462;2023-02-28T05:11:08;10.27;;;4.90;;
48629;SDS011;34426;52.180;4.462;2023-02-28T05:13:40;8.13;;;5.28;;
48629;SDS011;34426;52.180;4.462;2023-02-28T05:16:05;16.13;;;6.50;;
48629;SDS011;34426;52.180;4.462;2023-02-28T05:18:31;16.80;;;6.47;;
48629;SDS011;34426;52.180;4.462;2023-02-28T05:20:57;17.65;;;6.97;;
48629;SDS011;34426;52.180;4.462;2023-02-28T05:23:22;10.25;;;5.90;;
48629;SDS011;34426;52.180;4.462;2023-02-28T05:25:48;15.73;;;6.28;;
48629;SDS011;34426;52.180;4.462;2023-02-28T05:28:13;14.52;;;6.45;;
48629;SDS011;34426;52.180;4.462;2023-02-28T05:30:40;19.83;;;6.47;;
48629;SDS011;34426;52.180;4.462;2023-02-28T05:33:06;13.57;;;6.47;;
48629;SDS011;34426;52.180;4.462;2023-02-28T05:35:31;13.90;;;6.50;;
48629;SDS011;34426;52.180;4.462;2023-02-28T05:37:57;16.27;;;6.53;;
48629;SDS011;34426;52.180;4.462;2023-02-28T05:40:22;15.05;;;6.57;;
48629;SDS011;34426;52.180;4.462;2023-02-28T05:42:49;11.35;;;6.45;;
48629;SDS011;34426;52.180;4.462;2023-02-28T05:45:15;13.05;;;6.43;;
48629;SDS011;34426;52.180;4.462;2023-02-28T05:47:42;8.43;;;5.95;;
48629;SDS011;34426;52.180;4.462;2023-02-28T05:50:08;10.23;;;6.13;;
48629;SDS011;34426;52.180;4.462;2023-02-28T05:52:34;14.27;;;6.18;;
48629;SDS011;34426;52.180;4.462;2023-02-28T05:55:00;10.93;;;6.55;;
48629;SDS011;34426;52.180;4.462;2023-02-28T05:57:25;20.20;;;7.00;;
48629;SDS011;34426;52.180;4.462;2023-02-28T05:59:51;11.40;;;6.38;;
48629;SDS011;34426;52.180;4.462;2023-02-28T06:02:16;12.07;;;6.60;;
48629;SDS011;34426;52.180;4.462;2023-02-28T06:04:44;12.55;;;7.10;;
48629;SDS011;34426;52.180;4.462;2023-02-28T06:07:10;10.73;;;6.40;;
48629;SDS011;34426;52.180;4.462;2023-02-28T06:09:36;12.82;;;6.95;;
48629;SDS011;34426;52.180;4.462;2023-02-28T06:12:03;17.17;;;7.13;;
48629;SDS011;34426;52.180;4.462;2023-02-28T06:14:31;13.93;;;6.85;;
48629;SDS011;34426;52.180;4.462;2023-02-28T06:16:57;16.30;;;7.05;;
48629;SDS011;34426;52.180;4.462;2023-02-28T06:19:23;10.80;;;6.43;;
48629;SDS011;34426;52.180;4.462;2023-02-28T06:21:51;11.10;;;6.90;;
48629;SDS011;34426;52.180;4.462;2023-02-28T06:24:17;11.20;;;6.90;;
48629;SDS011;34426;52.180;4.462;2023-02-28T06:26:42;10.10;;;7.20;;
48629;SDS011;34426;52.180;4.462;2023-02-28T06:29:08;12.88;;;7.32;;
48629;SDS011;34426;52.180;4.462;2023-02-28T06:31:33;15.15;;;8.55;;
48629;SDS011;34426;52.180;4.462;2023-02-28T06:33:59;10.98;;;7.30;;
48629;SDS011;34426;52.180;4.462;2023-02-28T06:36:24;15.70;;;8.07;;
48629;SDS011;34426;52.180;4.462;2023-02-28T06:38:51;10.75;;;7.63;;
48629;SDS011;34426;52.180;4.462;2023-02-28T06:41:17;20.15;;;8.35;;
48629;SDS011;34426;52.180;4.462;2023-02-28T06:43:43;14.15;;;8.70;;
48629;SDS011;34426;52.180;4.462;2023-02-28T06:46:10;17.75;;;7.93;;
48629;SDS011;34426;52.180;4.462;2023-02-28T06:48:38;13.45;;;8.10;;
48629;SDS011;34426;52.180;4.462;2023-02-28T06:51:04;15.50;;;8.13;;
48629;SDS011;34426;52.180;4.462;2023-02-28T06:53:33;16.02;;;8.95;;
48629;SDS011;34426;52.180;4.462;2023-02-28T06:56:02;15.18;;;8.77;;
48629;SDS011;34426;52.180;4.462;2023-02-28T06:58:28;17.15;;;8.73;;
48629;SDS011;34426;52.180;4.462;2023-02-28T07:00:54;15.13;;;8.80;;
48629;SDS011;34426;52.180;4.462;2023-02-28T07:03:19;11.88;;;9.05;;
48629;SDS011;34426;52.180;4.462;2023-02-28T07:05:48;12.50;;;8.55;;
48629;SDS011;34426;52.180;4.462;2023-02-28T07:08:13;13.65;;;9.13;;
48629;SDS011;34426;52.180;4.462;2023-02-28T07:10:39;11.25;;;8.45;;
48629;SDS011;34426;52.180;4.462;2023-02-28T07:13:07;22.08;;;10.00;;
48629;SDS011;34426;52.180;4.462;2023-02-28T07:15:33;20.08;;;11.13;;
48629;SDS011;34426;52.180;4.462;2023-02-28T07:17:58;17.13;;;9.90;;
48629;SDS011;34426;52.180;4.462;2023-02-28T07:20:24;16.52;;;10.00;;
48629;SDS011;34426;52.180;4.462;2023-02-28T07:22:49;21.75;;;11.02;;
48629;SDS011;34426;52.180;4.462;2023-02-28T07:25:17;18.50;;;10.52;;
48629;SDS011;34426;52.180;4.462;2023-02-28T07:27:43;13.68;;;9.55;;
48629;SDS011;34426;52.180;4.462;2023-02-28T07:30:13;11.20;;;7.10;;
48629;SDS011;34426;52.180;4.462;2023-02-28T07:32:39;10.38;;;5.82;;
48629;SDS011;34426;52.180;4.462;2023-02-28T07:35:05;10.65;;;5.43;;
48629;SDS011;34426;52.180;4.462;2023-02-28T07:37:31;10.10;;;4.82;;
48629;SDS011;34426;52.180;4.462;2023-02-28T07:39:56;9.52;;;4.88;;
48629;SDS011;34426;52.180;4.462;2023-02-28T07:42:22;8.02;;;4.30;;
48629;SDS011;34426;52.180;4.462;2023-02-28T07:44:47;11.50;;;5.10;;
48629;SDS011;34426;52.180;4.462;2023-02-28T07:47:14;8.18;;;4.78;;
48629;SDS011;34426;52.180;4.462;2023-02-28T07:49:40;7.95;;;4.13;;
48629;SDS011;34426;52.180;4.462;2023-02-28T07:52:06;8.60;;;4.50;;
48629;SDS011;34426;52.180;4.462;2023-02-28T07:54:32;8.90;;;4.25;;
48629;SDS011;34426;52.180;4.462;2023-02-28T07:56:57;12.20;;;4.65;;
48629;SDS011;34426;52.180;4.462;2023-02-28T07:59:23;6.80;;;4.55;;
48629;SDS011;34426;52.180;4.462;2023-02-28T08:01:48;16.75;;;4.78;;
48629;SDS011;34426;52.180;4.462;2023-02-28T08:04:15;9.13;;;5.10;;
48629;SDS011;34426;52.180;4.462;2023-02-28T08:06:41;9.65;;;4.70;;
48629;SDS011;34426;52.180;4.462;2023-02-28T08:09:06;13.27;;;4.75;;
48629;SDS011;34426;52.180;4.462;2023-02-28T08:11:32;8.13;;;4.78;;
48629;SDS011;34426;52.180;4.462;2023-02-28T08:13:57;8.75;;;5.05;;
48629;SDS011;34426;52.180;4.462;2023-02-28T08:16:23;8.93;;;4.82;;
48629;SDS011;34426;52.180;4.462;2023-02-28T08:18:49;6.25;;;4.80;;
48629;SDS011;34426;52.180;4.462;2023-02-28T08:21:16;6.95;;;4.40;;
48629;SDS011;34426;52.180;4.462;2023-02-28T08:23:42;9.02;;;5.25;;
48629;SDS011;34426;52.180;4.462;2023-02-28T08:26:07;8.10;;;4.97;;
48629;SDS011;34426;52.180;4.462;2023-02-28T08:28:33;6.80;;;4.80;;
48629;SDS011;34426;52.180;4.462;2023-02-28T08:30:58;8.60;;;4.72;;
48629;SDS011;34426;52.180;4.462;2023-02-28T08:33:24;8.20;;;4.78;;
48629;SDS011;34426;52.180;4.462;2023-02-28T08:35:52;7.03;;;4.57;;
48629;SDS011;34426;52.180;4.462;2023-02-28T08:38:19;6.38;;;4.97;;
48629;SDS011;34426;52.180;4.462;2023-02-28T08:40:45;8.23;;;4.30;;
48629;SDS011;34426;52.180;4.462;2023-02-28T08:43:11;6.20;;;4.80;;
48629;SDS011;34426;52.180;4.462;2023-02-28T08:45:36;7.07;;;4.80;;
48629;SDS011;34426;52.180;4.462;2023-02-28T08:48:02;6.13;;;4.97;;
48629;SDS011;34426;52.180;4.462;2023-02-28T08:50:28;5.47;;;4.90;;
48629;SDS011;34426;52.180;4.462;2023-02-28T08:52:53;7.47;;;5.20;;
48629;SDS011;34426;52.180;4.462;2023-02-28T08:55:20;6.97;;;5.38;;
48629;SDS011;34426;52.180;4.462;2023-02-28T08:57:46;7.97;;;5.82;;
48629;SDS011;34426;52.180;4.462;2023-02-28T09:00:16;6.30;;;5.70;;
48629;SDS011;34426;52.180;4.462;2023-02-28T09:02:45;8.43;;;6.22;;
48629;SDS011;34426;52.180;4.462;2023-02-28T09:05:11;8.75;;;6.60;;
48629;SDS011;34426;52.180;4.462;2023-02-28T09:07:37;7.40;;;5.75;;
48629;SDS011;34426;52.180;4.462;2023-02-28T09:10:02;11.32;;;6.65;;
48629;SDS011;34426;52.180;4.462;2023-02-28T09:12:31;7.88;;;5.88;;
48629;SDS011;34426;52.180;4.462;2023-02-28T09:14:58;9.23;;;5.85;;
48629;SDS011;34426;52.180;4.462;2023-02-28T09:17:24;8.40;;;5.82;;
48629;SDS011;34426;52.180;4.462;2023-02-28T09:19:49;10.27;;;6.05;;
48629;SDS011;34426;52.180;4.462;2023-02-28T09:22:15;6.93;;;5.95;;
48629;SDS011;34426;52.180;4.462;2023-02-28T09:24:40;10.52;;;6.43;;
48629;SDS011;34426;52.180;4.462;2023-02-28T09:27:09;9.10;;;5.68;;
48629;SDS011;34426;52.180;4.462;2023-02-28T09:29:36;7.72;;;5.35;;
48629;SDS011;34426;52.180;4.462;2023-02-28T09:32:02;9.40;;;5.68;;
48629;SDS011;34426;52.180;4.462;2023-02-28T09:34:28;11.43;;;5.68;;
48629;SDS011;34426;52.180;4.462;2023-02-28T09:36:54;8.70;;;5.57;;
48629;SDS011;34426;52.180;4.462;2023-02-28T09:39:22;6.88;;;5.25;;
48629;SDS011;34426;52.180;4.462;2023-02-28T09:41:49;10.23;;;5.32;;
48629;SDS011;34426;52.180;4.462;2023-02-28T09:44:17;7.38;;;5.68;;
48629;SDS011;34426;52.180;4.462;2023-02-28T09:46:55;7.55;;;4.45;;
48629;SDS011;34426;52.180;4.462;2023-02-28T09:49:25;9.50;;;4.97;;
48629;SDS011;34426;52.180;4.462;2023-02-28T09:51:58;7.68;;;4.60;;
48629;SDS011;34426;52.180;4.462;2023-02-28T09:54:27;8.43;;;4.75;;
48629;SDS011;34426;52.180;4.462;2023-02-28T09:56:56;8.50;;;5.15;;
48629;SDS011;34426;52.180;4.462;2023-02-28T09:59:34;8.13;;;5.03;;
48629;SDS011;34426;52.180;4.462;2023-02-28T10:02:13;7.13;;;5.00;;
48629;SDS011;34426;52.180;4.462;2023-02-28T10:04:50;5.57;;;4.53;;
48629;SDS011;34426;52.180;4.462;2023-02-28T10:07:22;9.68;;;4.95;;
48629;SDS011;34426;52.180;4.462;2023-02-28T10:10:04;6.78;;;3.70;;
48629;SDS011;34426;52.180;4.462;2023-02-28T10:12:39;8.85;;;3.22;;
48629;SDS011;34426;52.180;4.462;2023-02-28T10:15:09;6.63;;;3.50;;
48629;SDS011;34426;52.180;4.462;2023-02-28T10:17:41;5.55;;;3.40;;
48629;SDS011;34426;52.180;4.462;2023-02-28T10:20:10;7.88;;;3.20;;
48629;SDS011;34426;52.180;4.462;2023-02-28T10:22:40;5.30;;;2.97;;
48629;SDS011;34426;52.180;4.462;2023-02-28T10:25:17;6.55;;;3.10;;
48629;SDS011;34426;52.180;4.462;2023-02-28T10:27:44;9.07;;;4.13;;
48629;SDS011;34426;52.180;4.462;2023-02-28T10:30:10;5.57;;;3.17;;
48629;SDS011;34426;52.180;4.462;2023-02-28T10:32:37;5.93;;;3.00;;
48629;SDS011;34426;52.180;4.462;2023-02-28T10:35:10;5.75;;;2.50;;
48629;SDS011;34426;52.180;4.462;2023-02-28T10:37:41;8.63;;;3.50;;
48629;SDS011;34426;52.180;4.462;2023-02-28T10:40:25;7.15;;;3.10;;
48629;SDS011;34426;52.180;4.462;2023-02-28T10:42:55;6.05;;;3.30;;
48629;SDS011;34426;52.180;4.462;2023-02-28T10:45:24;4.93;;;2.78;;
48629;SDS011;34426;52.180;4.462;2023-02-28T10:47:52;6.65;;;2.63;;
48629;SDS011;34426;52.180;4.462;2023-02-28T10:50:29;5.65;;;3.00;;
48629;SDS011;34426;52.180;4.462;2023-02-28T10:53:05;7.55;;;3.13;;
48629;SDS011;34426;52.180;4.462;2023-02-28T10:55:55;4.60;;;2.92;;
48629;SDS011;34426;52.180;4.462;2023-02-28T10:58:22;4.50;;;2.42;;
48629;SDS011;34426;52.180;4.462;2023-02-28T11:00:49;4.32;;;2.53;;
48629;SDS011;34426;52.180;4.462;2023-02-28T11:03:23;4.55;;;2.53;;
48629;SDS011;34426;52.180;4.462;2023-02-28T11:05:51;4.15;;;2.42;;
48629;SDS011;34426;52.180;4.462;2023-02-28T11:08:17;4.03;;;2.30;;
48629;SDS011;34426;52.180;4.462;2023-02-28T11:10:44;5.78;;;2.38;;
48629;SDS011;34426;52.180;4.462;2023-02-28T11:13:15;6.03;;;2.33;;
48629;SDS011;34426;52.180;4.462;2023-02-28T11:15:42;6.22;;;2.40;;
48629;SDS011;34426;52.180;4.462;2023-02-28T11:18:21;5.88;;;2.83;;
48629;SDS011;34426;52.180;4.462;2023-02-28T11:20:49;2.92;;;2.47;;
48629;SDS011;34426;52.180;4.462;2023-02-28T11:23:19;6.60;;;2.58;;
48629;SDS011;34426;52.180;4.462;2023-02-28T11:25:46;5.50;;;2.65;;
48629;SDS011;34426;52.180;4.462;2023-02-28T11:28:25;9.15;;;2.45;;
48629;SDS011;34426;52.180;4.462;2023-02-28T11:30:59;6.35;;;2.58;;
48629;SDS011;34426;52.180;4.462;2023-02-28T11:33:27;4.47;;;2.55;;
48629;SDS011;34426;52.180;4.462;2023-02-28T11:35:57;8.55;;;2.67;;
48629;SDS011;34426;52.180;4.462;2023-02-28T11:38:24;3.55;;;2.15;;
48629;SDS011;34426;52.180;4.462;2023-02-28T11:40:55;4.03;;;2.35;;
48629;SDS011;34426;52.180;4.462;2023-02-28T11:43:35;4.97;;;2.05;;
48629;SDS011;34426;52.180;4.462;2023-02-28T11:46:16;4.53;;;1.92;;
48629;SDS011;34426;52.180;4.462;2023-02-28T11:48:51;3.92;;;1.90;;
48629;SDS011;34426;52.180;4.462;2023-02-28T11:51:26;2.72;;;1.75;;
48629;SDS011;34426;52.180;4.462;2023-02-28T11:56:49;5.20;;;2.65;;
48629;SDS011;34426;52.180;4.462;2023-02-28T11:59:26;2.65;;;2.45;;
48629;SDS011;34426;52.180;4.462;2023-02-28T12:02:10;5.30;;;2.40;;
48629;SDS011;34426;52.180;4.462;2023-02-28T12:04:50;3.42;;;2.20;;
48629;SDS011;34426;52.180;4.462;2023-02-28T12:07:27;4.13;;;1.85;;
48629;SDS011;34426;52.180;4.462;2023-02-28T12:10:02;6.97;;;2.13;;
48629;SDS011;34426;52.180;4.462;2023-02-28T12:12:38;4.28;;;2.10;;
48629;SDS011;34426;52.180;4.462;2023-02-28T12:15:17;3.05;;;2.08;;
48629;SDS011;34426;52.180;4.462;2023-02-28T12:17:56;4.30;;;1.70;;
48629;SDS011;34426;52.180;4.462;2023-02-28T12:20:33;4.72;;;2.00;;
48629;SDS011;34426;52.180;4.462;2023-02-28T12:23:19;4.75;;;1.98;;
48629;SDS011;34426;52.180;4.462;2023-02-28T12:26:03;3.17;;;2.00;;
48629;SDS011;34426;52.180;4.462;2023-02-28T12:28:39;3.88;;;1.88;;
48629;SDS011;34426;52.180;4.462;2023-02-28T12:31:09;4.53;;;1.85;;
48629;SDS011;34426;52.180;4.462;2023-02-28T12:33:40;3.83;;;2.05;;
48629;SDS011;34426;52.180;4.462;2023-02-28T12:36:10;6.18;;;2.20;;
48629;SDS011;34426;52.180;4.462;2023-02-28T12:38:41;4.53;;;1.90;;
48629;SDS011;34426;52.180;4.462;2023-02-28T12:41:11;4.35;;;2.38;;
48629;SDS011;34426;52.180;4.462;2023-02-28T12:43:40;4.15;;;1.70;;
48629;SDS011;34426;52.180;4.462;2023-02-28T12:46:10;9.73;;;1.60;;
48629;SDS011;34426;52.180;4.462;2023-02-28T12:48:40;5.10;;;1.40;;
48629;SDS011;34426;52.180;4.462;2023-02-28T12:51:08;3.55;;;1.98;;
48629;SDS011;34426;52.180;4.462;2023-02-28T12:53:38;2.95;;;1.83;;
48629;SDS011;34426;52.180;4.462;2023-02-28T12:56:20;3.25;;;1.60;;
48629;SDS011;34426;52.180;4.462;2023-02-28T12:58:56;4.28;;;1.75;;
48629;SDS011;34426;52.180;4.462;2023-02-28T13:04:27;5.45;;;2.25;;
48629;SDS011;34426;52.180;4.462;2023-02-28T13:10:18;4.78;;;1.88;;
48629;SDS011;34426;52.180;4.462;2023-02-28T13:12:48;3.35;;;1.88;;
48629;SDS011;34426;52.180;4.462;2023-02-28T13:15:17;3.53;;;1.80;;
48629;SDS011;34426;52.180;4.462;2023-02-28T13:17:47;7.15;;;2.10;;
48629;SDS011;34426;52.180;4.462;2023-02-28T13:20:16;5.43;;;2.20;;
48629;SDS011;34426;52.180;4.462;2023-02-28T13:22:44;4.65;;;1.80;;
48629;SDS011;34426;52.180;4.462;2023-02-28T13:31:32;3.35;;;2.03;;
48629;SDS011;34426;52.180;4.462;2023-02-28T13:34:32;2.38;;;1.92;;
48629;SDS011;34426;52.180;4.462;2023-02-28T13:40:01;6.00;;;1.80;;
48629;SDS011;34426;52.180;4.462;2023-02-28T13:45:21;5.95;;;1.88;;
48629;SDS011;34426;52.180;4.462;2023-02-28T13:47:52;5.18;;;1.70;;
48629;SDS011;34426;52.180;4.462;2023-02-28T13:50:21;5.53;;;1.90;;
48629;SDS011;34426;52.180;4.462;2023-02-28T13:52:52;6.22;;;1.88;;
48629;SDS011;34426;52.180;4.462;2023-02-28T13:55:46;2.08;;;1.58;;
48629;SDS011;34426;52.180;4.462;2023-02-28T13:58:31;4.07;;;2.40;;
48629;SDS011;34426;52.180;4.462;2023-02-28T14:01:08;3.45;;;1.95;;
48629;SDS011;34426;52.180;4.462;2023-02-28T14:03:46;7.47;;;1.90;;
48629;SDS011;34426;52.180;4.462;2023-02-28T14:06:24;3.17;;;1.75;;
48629;SDS011;34426;52.180;4.462;2023-02-28T14:08:54;3.47;;;1.98;;
48629;SDS011;34426;52.180;4.462;2023-02-28T14:11:24;6.10;;;1.88;;
48629;SDS011;34426;52.180;4.462;2023-02-28T14:13:53;2.63;;;1.90;;
48629;SDS011;34426;52.180;4.462;2023-02-28T14:16:19;3.42;;;1.80;;
48629;SDS011;34426;52.180;4.462;2023-02-28T14:18:50;2.83;;;1.80;;
48629;SDS011;34426;52.180;4.462;2023-02-28T14:21:21;2.53;;;1.90;;
48629;SDS011;34426;52.180;4.462;2023-02-28T14:23:56;10.40;;;2.25;;
48629;SDS011;34426;52.180;4.462;2023-02-28T14:26:55;6.72;;;2.65;;
48629;SDS011;34426;52.180;4.462;2023-02-28T14:29:36;6.30;;;1.73;;
48629;SDS011;34426;52.180;4.462;2023-02-28T14:32:26;3.38;;;1.73;;
48629;SDS011;34426;52.180;4.462;2023-02-28T14:35:00;2.47;;;1.50;;
48629;SDS011;34426;52.180;4.462;2023-02-28T14:37:38;4.55;;;1.65;;
48629;SDS011;34426;52.180;4.462;2023-02-28T14:40:11;6.80;;;1.70;;
48629;SDS011;34426;52.180;4.462;2023-02-28T14:42:39;2.20;;;1.38;;
48629;SDS011;34426;52.180;4.462;2023-02-28T14:47:42;4.05;;;2.17;;
48629;SDS011;34426;52.180;4.462;2023-02-28T14:50:18;3.47;;;1.75;;
48629;SDS011;34426;52.180;4.462;2023-02-28T14:52:44;3.60;;;2.10;;
48629;SDS011;34426;52.180;4.462;2023-02-28T14:55:12;3.42;;;1.75;;
48629;SDS011;34426;52.180;4.462;2023-02-28T14:57:40;4.50;;;1.70;;
48629;SDS011;34426;52.180;4.462;2023-02-28T15:00:11;3.47;;;1.50;;
48629;SDS011;34426;52.180;4.462;2023-02-28T15:02:40;3.65;;;1.80;;
48629;SDS011;34426;52.180;4.462;2023-02-28T15:05:27;4.43;;;1.98;;
48629;SDS011;34426;52.180;4.462;2023-02-28T15:08:01;3.50;;;2.65;;
48629;SDS011;34426;52.180;4.462;2023-02-28T15:10:28;6.90;;;1.63;;
48629;SDS011;34426;52.180;4.462;2023-02-28T15:12:54;2.13;;;1.70;;
48629;SDS011;34426;52.180;4.462;2023-02-28T15:15:22;4.07;;;2.15;;
48629;SDS011;34426;52.180;4.462;2023-02-28T15:17:51;2.65;;;1.95;;
48629;SDS011;34426;52.180;4.462;2023-02-28T15:20:21;3.65;;;1.80;;
48629;SDS011;34426;52.180;4.462;2023-02-28T15:22:50;4.40;;;1.65;;
48629;SDS011;34426;52.180;4.462;2023-02-28T15:25:20;4.05;;;1.83;;